Time;durP1;ratioP1;P1;durP2;ratioP2;P2;SDS_P1;SDS_P2;PMS_P1;PMS_P2;Temp;Humidity;BMP_temperature;BMP_pressure;BME280_temperature;BME280_humidity;BME280_pressure;Samples;Min_cycle;Max_cycle;Signal;HPM_P1;HPM_P2
2022/12/12 00:02:41;;;;;;;43.33;23.70;;;;;;;-3.35;97.68;99159.00;10420974;28;20080;-71
2022/12/12 00:07:43;;;;;;;37.00;22.65;;;;;;;-3.35;96.56;99150.44;10418955;28;20057;-71
2022/12/12 00:12:45;;;;;;;38.55;22.58;;;;;;;-3.48;97.53;99156.28;10421454;28;20042;-71
2022/12/12 00:17:47;;;;;;;39.38;22.95;;;;;;;-3.49;97.83;99150.28;10418745;28;20038;-70
2022/12/12 00:22:48;;;;;;;45.42;23.23;;;;;;;-3.39;98.21;99148.66;10402027;28;20045;-70
2022/12/12 00:27:50;;;;;;;44.10;22.42;;;;;;;-3.34;97.96;99141.88;10418180;28;20033;-70
2022/12/12 00:32:52;;;;;;;45.90;24.58;;;;;;;-3.46;99.46;99140.03;10418448;28;20115;-71
2022/12/12 00:37:53;;;;;;;49.90;24.85;;;;;;;-3.52;98.89;99142.53;10401442;28;20565;-71
2022/12/12 00:42:55;;;;;;;51.78;24.30;;;;;;;-3.61;99.75;99145.88;10417792;28;20076;-71
2022/12/12 00:47:57;;;;;;;46.80;23.25;;;;;;;-3.60;99.81;99145.03;10417208;28;20041;-71
2022/12/12 00:52:58;;;;;;;50.40;24.50;;;;;;;-3.64;100.00;99147.53;10419172;28;20434;-71
2022/12/12 00:58:00;;;;;;;41.05;23.48;;;;;;;-3.61;100.00;99153.59;10419947;28;20045;-71
2022/12/12 01:03:02;;;;;;;49.03;24.77;;;;;;;-3.65;100.00;99159.53;10398415;28;20045;-71
2022/12/12 01:08:04;;;;;;;50.03;24.98;;;;;;;-3.60;100.00;99155.31;10381928;28;20499;-71
2022/12/12 01:13:06;;;;;;;40.33;21.98;;;;;;;-3.38;100.00;99161.53;10416843;28;20052;-71
2022/12/12 01:18:07;;;;;;;42.88;23.60;;;;;;;-3.48;99.03;99149.44;10418237;28;20462;-71
2022/12/12 01:23:10;;;;;;;44.97;23.40;;;;;;;-3.45;98.65;99153.72;10400453;28;20041;-71
2022/12/12 01:28:12;;;;;;;44.22;23.98;;;;;;;-3.61;100.00;99165.56;10416568;28;20049;-71
2022/12/12 01:33:13;;;;;;;46.75;23.27;;;;;;;-3.49;99.49;99167.41;10415594;28;20518;-71
2022/12/12 01:38:15;;;;;;;38.85;23.27;;;;;;;-3.22;97.46;99165.13;10398852;28;20072;-71
2022/12/12 01:43:18;;;;;;;45.00;24.35;;;;;;;-3.31;97.50;99157.31;10417685;28;20041;-71
2022/12/12 01:48:22;;;;;;;41.25;22.67;;;;;;;-3.34;97.60;99167.56;10416218;28;20080;-70
2022/12/12 01:53:25;;;;;;;43.05;23.90;;;;;;;-3.55;99.23;99178.47;10416878;28;20048;-71
2022/12/12 01:58:29;;;;;;;47.70;24.98;;;;;;;-3.60;100.00;99169.84;10415948;28;20049;-70
2022/12/12 02:03:31;;;;;;;48.20;24.83;;;;;;;-3.27;98.31;99171.06;10416991;28;20041;-70
2022/12/12 02:08:33;;;;;;;49.97;25.10;;;;;;;-3.37;98.64;99162.38;10415122;28;20494;-71
2022/12/12 02:13:35;;;;;;;50.78;25.25;;;;;;;-3.31;98.60;99165.88;10415074;28;20049;-72
2022/12/12 02:19:05;;;;;;;47.28;25.15;;;;;;;-3.36;98.69;99165.00;10397165;28;20049;-71
2022/12/12 02:24:23;;;;;;;46.83;24.38;;;;;;;-3.36;99.10;99164.13;10416739;28;20112;-73
2022/12/12 02:29:35;;;;;;;43.28;23.20;;;;;;;-3.20;97.35;99155.69;10415593;28;20087;-71
2022/12/12 02:34:50;;;;;;;46.63;23.75;;;;;;;-3.38;99.25;99164.09;10397619;28;20064;-71
2022/12/12 02:40:00;;;;;;;53.67;25.05;;;;;;;-3.43;100.00;99167.47;10419820;28;20388;-71
2022/12/12 02:45:13;;;;;;;42.70;22.85;;;;;;;-3.31;100.00;99167.59;10424862;28;20061;-71
2022/12/12 02:50:21;;;;;;;44.30;23.27;;;;;;;-3.29;99.82;99147.91;10405688;28;20045;-71
2022/12/12 02:55:22;;;;;;;44.78;22.50;;;;;;;-3.40;100.00;99152.09;10403673;28;20495;-71
2022/12/12 03:00:24;;;;;;;52.13;26.30;;;;;;;-3.31;100.00;99157.31;10421223;28;20045;-71
2022/12/12 03:11:15;;;;;;;50.55;25.83;;;;;;;-3.38;100.00;99158.09;10421986;28;20045;-72
2022/12/12 03:16:37;;;;;;;53.72;27.00;;;;;;;-3.31;100.00;99152.19;10422494;28;20041;-71
2022/12/12 03:21:55;;;;;;;47.03;25.40;;;;;;;-3.07;99.87;99141.25;10421423;28;20501;-71
2022/12/12 03:27:12;;;;;;;48.22;24.63;;;;;;;-3.12;99.36;99148.06;10421976;28;20076;-72
2022/12/12 03:32:24;;;;;;;48.22;25.45;;;;;;;-3.14;98.98;99147.22;10421814;28;20073;-72
2022/12/12 03:37:32;;;;;;;40.65;22.55;;;;;;;-3.17;98.71;99147.16;10422044;28;20091;-71
2022/12/12 03:42:36;;;;;;;46.90;24.80;;;;;;;-3.22;99.66;99154.84;10421097;28;20112;-71
2022/12/12 03:47:50;;;;;;;39.72;23.85;;;;;;;-3.17;99.57;99153.16;10403804;28;20449;-72
2022/12/12 03:52:59;;;;;;;38.50;24.48;;;;;;;-3.34;100.00;99147.88;10421033;28;20131;-72
2022/12/12 03:58:13;;;;;;;41.58;23.92;;;;;;;-3.18;99.30;99150.59;10420172;28;20395;-72
2022/12/12 04:03:56;;;;;;;47.78;24.40;;;;;;;-3.18;100.00;99150.59;10419947;28;20041;-72
2022/12/12 04:14:54;;;;;;;36.70;22.27;;;;;;;-3.21;100.00;99150.56;10420890;28;20059;-72
2022/12/12 04:25:32;;;;;;;;;;;;;;;-3.34;100.00;99163.28;10419331;28;20052;-72
2022/12/12 04:30:34;;;;;;;36.35;21.20;;;;;;;-3.03;100.00;99165.28;10417762;28;19936;-72
2022/12/12 04:35:50;;;;;;;40.13;20.98;;;;;;;-2.99;100.00;99160.19;10420490;28;20048;-72
2022/12/12 04:40:58;;;;;;;38.35;19.70;;;;;;;-3.08;100.00;99167.81;10417644;28;20047;-72
2022/12/12 04:46:08;;;;;;;38.28;22.88;;;;;;;-3.08;100.00;99162.66;10417490;28;20041;-72
2022/12/12 04:51:15;;;;;;;33.40;21.10;;;;;;;-3.24;100.00;99171.06;10400295;28;20072;-72
2022/12/12 04:56:23;;;;;;;48.58;23.95;;;;;;;-3.40;100.00;99173.50;10419594;28;20061;-72
2022/12/12 05:01:33;;;;;;;38.90;22.42;;;;;;;-3.22;100.00;99183.13;10417000;28;20144;-71
2022/12/12 05:06:44;;;;;;;41.95;23.33;;;;;;;-3.09;100.00;99184.94;10417497;28;20064;-72
2022/12/12 05:11:47;;;;;;;34.60;21.23;;;;;;;-2.90;100.00;99180.81;10419039;28;20065;-73
2022/12/12 05:16:54;;;;;;;39.22;23.23;;;;;;;-3.06;100.00;99186.66;10399826;28;20072;-73
2022/12/12 05:21:56;;;;;;;35.88;21.17;;;;;;;-3.05;100.00;99189.28;10416565;28;20041;-72
2022/12/12 05:26:58;;;;;;;38.28;22.83;;;;;;;-3.03;100.00;99191.00;10400096;28;20463;-72
2022/12/12 05:31:59;;;;;;;35.33;22.38;;;;;;;-2.99;100.00;99190.19;10416055;28;20041;-72
2022/12/12 05:37:01;;;;;;;41.28;22.33;;;;;;;-2.99;100.00;99191.03;10400241;28;20088;-71
2022/12/12 05:42:03;;;;;;;30.85;20.48;;;;;;;-2.97;100.00;99199.59;10416749;28;20499;-72
2022/12/12 05:47:05;;;;;;;40.10;21.92;;;;;;;-2.91;100.00;99201.41;10415678;28;20041;-71
2022/12/12 05:52:07;;;;;;;37.92;22.63;;;;;;;-2.99;100.00;99208.16;10417004;28;20049;-72
2022/12/12 05:57:09;;;;;;;32.78;21.48;;;;;;;-2.88;100.00;99201.41;10415000;28;20038;-73
2022/12/12 06:02:12;;;;;;;35.15;21.85;;;;;;;-2.95;100.00;99197.06;10416547;28;20042;-73
2022/12/12 06:07:13;;;;;;;35.38;22.10;;;;;;;-2.98;100.00;99203.03;10414736;28;20051;-72
2022/12/12 06:12:15;;;;;;;38.58;23.85;;;;;;;-3.00;100.00;99203.88;10400447;28;20121;-73
2022/12/12 06:17:17;;;;;;;38.75;21.92;;;;;;;-2.92;100.00;99209.94;10422937;28;20536;-72
2022/12/12 06:22:18;;;;;;;43.13;23.35;;;;;;;-2.97;100.00;99207.31;10424137;28;20041;-73
2022/12/12 06:27:20;;;;;;;43.63;23.52;;;;;;;-3.03;100.00;99209.84;10423300;28;20045;-72
2022/12/12 06:32:22;;;;;;;43.60;25.55;;;;;;;-3.25;100.00;99219.06;10404045;28;20049;-73
2022/12/12 06:37:24;;;;;;;40.05;24.35;;;;;;;-2.99;100.00;99228.75;10403568;28;20052;-72
2022/12/12 06:42:25;;;;;;;48.38;25.27;;;;;;;-3.17;100.00;99227.72;10405220;28;20049;-72
2022/12/12 06:47:27;;;;;;;48.47;25.90;;;;;;;-3.16;100.00;99226.84;10405287;28;20041;-72
2022/12/12 06:52:30;;;;;;;37.83;23.55;;;;;;;-2.94;100.00;99232.22;10404507;28;20116;-72
2022/12/12 06:57:31;;;;;;;53.05;28.10;;;;;;;-3.12;100.00;99236.31;10404289;28;20510;-72
2022/12/12 07:02:33;;;;;;;46.83;25.48;;;;;;;-3.12;100.00;99245.75;10422158;28;20045;-72
2022/12/12 07:07:35;;;;;;;36.63;23.95;;;;;;;-2.92;100.00;99245.94;10404756;28;20525;-73
2022/12/12 07:12:36;;;;;;;40.47;23.98;;;;;;;-2.88;100.00;99250.25;10421842;28;20087;-72
2022/12/12 07:17:39;;;;;;;45.28;25.48;;;;;;;-3.06;100.00;99256.09;10404270;28;20044;-73
2022/12/12 07:22:41;;;;;;;44.40;24.80;;;;;;;-2.95;100.00;99259.63;10421811;28;20045;-74
2022/12/12 07:27:43;;;;;;;36.45;22.83;;;;;;;-2.89;100.00;99267.41;10422085;28;20046;-73
2022/12/12 07:32:45;;;;;;;36.38;23.70;;;;;;;-2.96;100.00;99268.22;10402694;28;20049;-72
2022/12/12 07:37:46;;;;;;;34.78;22.80;;;;;;;-2.84;99.54;99270.88;10421461;28;20041;-73
2022/12/12 07:42:48;;;;;;;36.65;22.95;;;;;;;-2.95;99.13;99271.63;10416987;28;20057;-74
2022/12/12 07:47:51;;;;;;;33.15;21.05;;;;;;;-2.95;98.52;99275.06;10423114;28;20125;-72
2022/12/12 07:52:54;;;;;;;33.22;20.45;;;;;;;-2.97;97.57;99273.31;10421318;28;20183;-74
2022/12/12 07:57:56;;;;;;;22.80;19.58;;;;;;;-2.87;97.09;99280.28;10421982;28;20034;-72
2022/12/12 08:02:58;;;;;;;32.92;20.40;;;;;;;-2.82;97.64;99283.78;10403868;28;20045;-73
2022/12/12 08:07:59;;;;;;;27.25;20.33;;;;;;;-3.01;98.54;99282.72;10395792;22;20041;-73
2022/12/12 08:13:05;;;;;;;24.95;19.40;;;;;;;-3.02;97.59;99283.56;10385005;28;20109;-73
2022/12/12 08:18:12;;;;;;;27.70;19.90;;;;;;;-2.98;96.88;99290.47;10383579;28;20046;-73
2022/12/12 08:23:13;;;;;;;22.88;18.70;;;;;;;-2.75;95.36;99290.69;10376615;28;20046;-72
2022/12/12 08:28:15;;;;;;;21.65;18.98;;;;;;;-2.97;95.04;99292.16;10378899;28;20041;-74
2022/12/12 08:33:21;;;;;;;21.30;19.02;;;;;;;-2.91;95.89;99293.97;10380388;28;20046;-73
2022/12/12 08:38:26;;;;;;;22.40;18.17;;;;;;;-2.82;95.38;99299.19;10377786;28;20038;-73
2022/12/12 08:43:27;;;;;;;21.65;17.27;;;;;;;-2.80;95.76;99300.06;10379263;28;20045;-72
2022/12/12 08:48:29;;;;;;;19.08;17.27;;;;;;;-2.94;95.96;99302.50;10380231;28;20399;-74
2022/12/12 08:53:31;;;;;;;24.30;17.75;;;;;;;-2.84;96.22;99299.16;10380847;28;20148;-74
2022/12/12 08:58:33;;;;;;;22.70;18.45;;;;;;;-2.87;95.71;99311.16;10377173;28;20056;-72
2022/12/12 09:03:37;;;;;;;21.23;18.05;;;;;;;-2.80;96.59;99328.34;10378249;28;20112;-73
2022/12/12 09:08:40;;;;;;;18.42;16.50;;;;;;;-2.77;95.74;99336.13;10379870;28;20041;-72
2022/12/12 09:13:42;;;;;;;19.45;17.45;;;;;;;-2.69;94.84;99336.22;10379475;28;20092;-72
2022/12/12 09:18:44;;;;;;;18.60;16.55;;;;;;;-2.57;93.89;99344.03;10377203;28;20406;-73
2022/12/12 09:23:49;;;;;;;22.35;17.90;;;;;;;-2.52;94.68;99342.38;10377045;28;20042;-71
2022/12/12 09:28:51;;;;;;;21.02;16.90;;;;;;;-2.71;95.65;99343.03;10373993;28;20152;-74
2022/12/12 09:33:53;;;;;;;19.45;17.30;;;;;;;-2.30;93.43;99348.59;10376770;28;20124;-72
2022/12/12 09:38:55;;;;;;;17.38;15.57;;;;;;;-2.23;92.31;99354.66;10375461;28;20045;-74
2022/12/12 09:44:02;;;;;;;19.55;17.52;;;;;;;-2.17;91.18;99349.53;10375231;28;20053;-73
2022/12/12 09:49:19;;;;;;;20.15;16.95;;;;;;;-2.32;92.60;99347.69;10382842;28;20052;-74
2022/12/12 09:54:24;;;;;;;19.55;16.55;;;;;;;-2.41;93.69;99340.75;10386078;28;20046;-73
2022/12/12 09:59:35;;;;;;;23.67;17.92;;;;;;;-2.50;94.55;99335.53;10386986;28;20048;-74
2022/12/12 10:04:45;;;;;;;25.33;18.75;;;;;;;-2.38;93.19;99347.66;10384742;28;20054;-73
2022/12/12 10:10:18;;;;;;;24.92;17.58;;;;;;;-2.24;91.21;99352.94;10387134;28;20080;-73
2022/12/12 10:15:31;;;;;;;25.55;18.63;;;;;;;-2.15;90.86;99358.16;10383677;28;20038;-72
2022/12/12 10:20:44;;;;;;;22.42;18.80;;;;;;;-2.10;91.67;99367.63;10384048;28;20054;-73
2022/12/12 10:25:53;;;;;;;27.63;20.60;;;;;;;-2.29;93.36;99366.63;10386191;28;20049;-73
2022/12/12 10:31:04;;;;;;;25.95;18.85;;;;;;;-2.10;91.06;99372.78;10385018;28;20048;-72
2022/12/12 10:36:41;;;;;;;27.77;20.10;;;;;;;-2.30;93.28;99364.03;10383242;28;20050;-73
2022/12/12 10:41:55;;;;;;;;;;;;;;;-2.09;92.75;99361.63;10378359;28;20060;-72
2022/12/12 10:46:56;;;;;;;33.00;18.92;;;;;;;-2.07;92.94;99371.94;10379963;28;19922;-72
2022/12/12 10:52:03;;;;;;;22.67;19.25;;;;;;;-1.88;92.42;99370.38;10383217;28;20060;-72
2022/12/12 10:57:18;;;;;;;21.80;17.30;;;;;;;-1.94;91.78;99371.19;10383218;28;20411;-75
2022/12/12 11:02:37;;;;;;;24.30;18.10;;;;;;;-2.04;92.54;99354.81;10382045;28;20070;-72
2022/12/12 11:07:43;;;;;;;29.23;20.08;;;;;;;-2.00;93.59;99354.81;10382658;28;20088;-73
2022/12/12 11:12:44;;;;;;;30.00;18.67;;;;;;;-2.09;95.16;99353.91;10384049;28;20056;-74
2022/12/12 11:17:48;;;;;;;21.63;18.85;;;;;;;-1.94;94.08;99358.31;10382598;28;20046;-72
2022/12/12 11:22:53;;;;;;;29.80;19.35;;;;;;;-2.01;95.40;99351.38;10366106;28;20048;-74
2022/12/12 11:28:00;;;;;;;26.23;18.98;;;;;;;-1.91;96.01;99358.31;10380856;28;20081;-73
2022/12/12 11:33:18;;;;;;;31.00;20.88;;;;;;;-2.02;96.87;99359.97;10381995;28;20104;-73
2022/12/12 11:38:25;;;;;;;29.98;18.85;;;;;;;-1.90;95.82;99369.53;10381489;28;20038;-73
2022/12/12 11:43:34;;;;;;;35.53;21.77;;;;;;;-2.05;97.21;99370.25;10367128;28;20435;-74
2022/12/12 11:48:56;;;;;;;31.35;20.83;;;;;;;-2.01;97.83;99365.97;10384346;28;20045;-73
2022/12/12 11:53:59;;;;;;;27.25;21.55;;;;;;;-2.03;97.90;99361.69;10366701;28;20054;-73
2022/12/12 11:59:32;;;;;;;29.05;20.77;;;;;;;-2.13;99.77;99369.31;10385659;28;20038;-73
2022/12/12 12:05:14;;;;;;;29.23;20.35;;;;;;;-2.08;99.31;99365.94;10387929;28;20049;-74
2022/12/12 12:10:48;;;;;;;33.55;21.67;;;;;;;-2.05;99.40;99358.22;10358874;28;20041;-74
2022/12/12 12:16:22;;;;;;;27.20;21.23;;;;;;;-2.04;98.80;99359.97;10387609;28;20038;-74
2022/12/12 12:21:28;;;;;;;35.60;22.20;;;;;;;-2.11;100.00;99358.19;10390361;28;20403;-74
2022/12/12 12:26:53;;;;;;;33.40;23.63;;;;;;;-1.87;99.21;99364.38;10386226;28;20050;-74
2022/12/12 12:32:21;;;;;;;30.45;20.15;;;;;;;-1.79;98.40;99357.56;10378619;28;20049;-74
2022/12/12 12:37:42;;;;;;;33.33;22.65;;;;;;;-1.80;98.71;99371.31;10380114;28;20479;-74
2022/12/12 12:43:11;;;;;;;27.23;20.85;;;;;;;-1.70;98.26;99365.34;10378783;28;20121;-74
2022/12/12 12:48:38;;;;;;;30.80;22.63;;;;;;;-1.65;98.60;99370.53;10377124;28;20533;-74
2022/12/12 12:53:50;;;;;;;27.67;21.70;;;;;;;-1.65;99.08;99376.56;10378866;28;20066;-74
2022/12/12 12:58:55;;;;;;;27.20;20.55;;;;;;;-1.61;98.29;99374.84;10378538;28;20308;-74
2022/12/12 13:04:04;;;;;;;31.70;21.27;;;;;;;-1.66;98.71;99369.69;10378625;28;20053;-75
2022/12/12 13:09:15;;;;;;;29.17;19.92;;;;;;;-1.68;99.13;99375.66;10378906;28;20037;-74
2022/12/12 13:14:42;;;;;;;23.70;21.00;;;;;;;-1.64;100.00;99382.56;10378675;28;20042;-74
2022/12/12 13:19:48;;;;;;;26.20;20.83;;;;;;;-1.68;99.75;99381.69;10378408;28;20044;-75
2022/12/12 13:25:25;;;;;;;26.33;19.33;;;;;;;-1.61;99.92;99391.19;10376574;28;20053;-73
2022/12/12 13:30:42;;;;;;;27.25;20.88;;;;;;;-2.04;100.00;99393.44;10378672;28;20295;-74
2022/12/12 13:35:53;;;;;;;33.35;21.40;;;;;;;-1.83;100.00;99402.19;10377839;28;20431;-74
2022/12/12 13:40:58;;;;;;;21.77;19.38;;;;;;;-1.68;98.71;99404.91;10378990;28;20447;-74
2022/12/12 13:46:23;;;;;;;19.63;17.52;;;;;;;-1.90;99.85;99405.59;10378933;28;20408;-74
2022/12/12 13:51:32;;;;;;;26.00;19.75;;;;;;;-1.59;98.41;99416.97;10375166;28;20060;-74
2022/12/12 13:57:05;;;;;;;19.75;17.85;;;;;;;-1.69;96.98;99413.44;10378648;28;20041;-74
2022/12/12 14:02:40;;;;;;;18.88;17.05;;;;;;;-1.84;97.51;99418.50;10377559;28;20042;-74
2022/12/12 14:07:51;;;;;;;23.77;18.40;;;;;;;-1.86;96.90;99428.81;10405606;23;20045;-70
2022/12/12 14:12:54;;;;;;;27.13;18.48;;;;;;;-1.87;95.17;99428.75;10439631;28;20067;-70
2022/12/12 14:18:01;;;;;;;24.40;16.85;;;;;;;-1.85;94.11;99435.66;10455951;28;20033;-70
2022/12/12 14:23:21;;;;;;;16.98;15.40;;;;;;;-2.01;93.13;99438.09;10456875;28;20670;-70
2022/12/12 14:28:24;;;;;;;24.33;17.15;;;;;;;-2.24;94.52;99437.88;10455777;28;20045;-70
2022/12/12 14:34:11;;;;;;;23.88;15.95;;;;;;;-2.19;93.18;99443.94;10457562;28;20045;-70
2022/12/12 14:39:34;;;;;;;19.05;15.52;;;;;;;-1.98;90.64;99458.75;10463771;28;20048;-70
2022/12/12 14:44:42;;;;;;;18.17;15.77;;;;;;;-2.30;92.53;99467.00;10486923;28;20076;-70
2022/12/12 14:50:08;;;;;;;18.48;15.45;;;;;;;-2.39;92.78;99457.47;10419848;28;20140;-70
2022/12/12 14:55:14;;;;;;;19.42;16.38;;;;;;;-2.28;90.51;99453.28;10505672;28;20067;-70
2022/12/12 15:00:18;;;;;;;105.78;49.35;;;;;;;-2.38;90.79;99458.34;10462533;28;20094;-70
2022/12/12 15:05:20;;;;;;;16.52;14.77;;;;;;;-2.21;89.57;99468.78;10463267;28;20049;-70
2022/12/12 15:10:28;;;;;;;16.02;14.32;;;;;;;-2.35;88.73;99482.38;10462297;28;20568;-69
2022/12/12 15:15:32;;;;;;;20.05;16.02;;;;;;;-2.68;89.88;99475.13;10470859;28;20044;-70
2022/12/12 15:20:34;;;;;;;20.58;18.10;;;;;;;-2.58;88.66;99494.13;10502962;28;20052;-70
2022/12/12 15:25:46;;;;;;;27.50;19.77;;;;;;;-2.77;90.64;99505.03;10504804;28;20464;-70
2022/12/12 15:30:52;;;;;;;32.85;19.42;;;;;;;-2.69;89.59;99506.00;10504197;28;20047;-70
2022/12/12 15:35:57;;;;;;;26.73;19.90;;;;;;;-2.82;90.58;99515.25;10502790;28;20124;-70
2022/12/12 15:41:05;;;;;;;24.58;20.75;;;;;;;-3.11;91.39;99515.69;10485647;28;20075;-70
2022/12/12 15:46:14;;;;;;;31.23;21.90;;;;;;;-3.29;92.60;99510.28;10504149;28;20403;-70
2022/12/12 15:51:17;;;;;;;32.80;21.48;;;;;;;-3.38;92.88;99520.41;10501941;28;20036;-70
2022/12/12 15:56:30;;;;;;;29.58;22.90;;;;;;;-3.41;93.67;99520.34;10502655;28;20561;-70
2022/12/12 16:01:32;;;;;;;45.37;26.17;;;;;;;-3.32;93.61;99528.22;10501818;28;20043;-70
2022/12/12 16:06:38;;;;;;;39.17;22.90;;;;;;;-3.39;93.51;99528.97;10501171;28;20110;-70
2022/12/12 16:11:47;;;;;;;58.97;30.48;;;;;;;-3.49;94.00;99539.94;10484944;28;20033;-70
2022/12/12 16:17:04;;;;;;;88.60;42.20;;;;;;;-3.46;94.14;99522.84;10502931;28;20050;-70
2022/12/12 16:22:42;;;;;;;78.38;37.13;;;;;;;-3.42;93.57;99534.06;10466936;28;20110;-70
2022/12/12 16:27:45;;;;;;;77.93;37.10;;;;;;;-3.35;92.80;99544.47;10484936;28;20062;-70
2022/12/12 16:32:47;;;;;;;36.47;23.88;;;;;;;-3.47;93.18;99546.81;10500992;28;20070;-70
2022/12/12 16:37:51;;;;;;;68.13;33.95;;;;;;;-3.34;94.06;99555.59;10499808;28;20567;-69
2022/12/12 16:43:00;;;;;;;47.03;27.15;;;;;;;-3.11;90.96;99550.81;10501626;28;20127;-70
2022/12/12 16:48:30;;;;;;;46.63;26.95;;;;;;;-3.32;92.49;99556.47;10488307;28;20091;-69
2022/12/12 16:53:33;;;;;;;72.05;36.10;;;;;;;-3.20;92.08;99560.97;10432079;28;20040;-70
2022/12/12 16:58:35;;;;;;;42.70;25.77;;;;;;;-3.30;92.67;99565.09;10481223;28;20041;-70
2022/12/12 17:03:37;;;;;;;40.58;24.77;;;;;;;-3.21;92.86;99560.09;10462713;28;20049;-70
2022/12/12 17:08:38;;;;;;;44.83;25.30;;;;;;;-3.17;92.55;99567.03;10440205;28;20037;-70
2022/12/12 17:13:46;;;;;;;44.95;26.70;;;;;;;-3.05;91.05;99569.78;10440262;28;20056;-70
2022/12/12 17:18:48;;;;;;;33.67;23.42;;;;;;;-3.22;91.53;99576.38;10451920;28;20043;-70
2022/12/12 17:23:50;;;;;;;29.70;23.17;;;;;;;-3.05;90.67;99581.78;10450886;28;20442;-70
2022/12/12 17:28:51;;;;;;;31.58;23.33;;;;;;;-3.28;92.54;99581.41;10402532;28;20124;-70
2022/12/12 17:33:54;;;;;;;44.58;29.08;;;;;;;-3.26;91.59;99587.44;10424709;28;20404;-70
2022/12/12 17:38:55;;;;;;;62.33;30.58;;;;;;;-3.09;90.45;99580.00;10459874;28;20045;-70
2022/12/12 17:43:57;;;;;;;24.85;21.05;;;;;;;-3.18;90.23;99575.59;10440323;28;20064;-70
2022/12/12 17:49:00;;;;;;;22.70;20.27;;;;;;;-3.35;91.78;99582.16;10459017;28;20033;-70
2022/12/12 17:54:02;;;;;;;30.20;22.30;;;;;;;-3.08;88.53;99589.44;10424759;28;20080;-70
2022/12/12 17:59:07;;;;;;;43.72;25.38;;;;;;;-3.24;89.58;99584.88;10418165;28;20047;-70
2022/12/12 18:04:10;;;;;;;55.47;28.38;;;;;;;-3.30;90.17;99588.22;10420396;28;20495;-70
2022/12/12 18:09:13;;;;;;;39.20;25.75;;;;;;;-3.42;91.50;99586.31;10419432;28;20514;-70
2022/12/12 18:14:17;;;;;;;46.25;25.73;;;;;;;-3.22;89.46;99591.81;10406263;28;20049;-70
2022/12/12 18:19:20;;;;;;;43.65;26.98;;;;;;;-3.18;90.03;99591.00;10425915;28;20045;-70
2022/12/12 18:24:24;;;;;;;42.33;25.10;;;;;;;-3.22;89.96;99596.94;10424961;28;20491;-70
2022/12/12 18:29:26;;;;;;;46.33;25.67;;;;;;;-3.20;89.30;99594.38;10463856;28;20436;-70
2022/12/12 18:34:27;;;;;;;44.05;25.38;;;;;;;-3.15;88.73;99601.31;10464371;28;20048;-70
2022/12/12 18:39:29;;;;;;;30.88;22.50;;;;;;;-3.17;88.37;99604.72;10446880;28;20048;-70
2022/12/12 18:44:31;;;;;;;46.00;26.33;;;;;;;-3.41;89.42;99608.63;10464444;28;20048;-70
2022/12/12 18:49:33;;;;;;;39.72;25.48;;;;;;;-3.37;88.97;99612.94;10463820;28;20045;-70
2022/12/12 18:54:34;;;;;;;51.60;28.20;;;;;;;-3.40;89.59;99612.91;10446845;28;20041;-70
2022/12/12 18:59:36;;;;;;;48.22;28.65;;;;;;;-3.40;89.93;99617.19;10464472;28;20570;-70
2022/12/12 19:04:38;;;;;;;40.38;24.85;;;;;;;-3.19;88.31;99617.53;10438085;28;20045;-71
2022/12/12 19:09:40;;;;;;;46.22;25.90;;;;;;;-3.25;89.38;99619.16;10459468;28;20585;-71
2022/12/12 19:14:42;;;;;;;38.10;23.45;;;;;;;-3.37;88.25;99625.78;10443327;28;20049;-70
2022/12/12 19:20:04;;;;;;;39.08;25.92;;;;;;;-3.32;89.23;99625.88;10447089;28;20192;-70
2022/12/12 19:25:08;;;;;;;59.90;29.83;;;;;;;-3.46;90.29;99612.78;10462471;28;20041;-71
2022/12/12 19:30:12;;;;;;;51.75;27.52;;;;;;;-3.44;89.48;99611.13;10443803;28;20045;-70
2022/12/12 19:35:15;;;;;;;76.43;35.08;;;;;;;-3.39;89.47;99613.78;10460645;28;20041;-71
2022/12/12 19:40:17;;;;;;;46.30;27.50;;;;;;;-3.33;89.70;99616.44;10461451;28;20132;-71
2022/12/12 19:45:19;;;;;;;88.10;42.53;;;;;;;-3.25;89.30;99616.59;10444229;28;20045;-71
2022/12/12 19:50:21;;;;;;;47.83;27.40;;;;;;;-3.28;89.06;99622.53;10459174;28;20433;-71
2022/12/12 19:55:23;;;;;;;36.53;25.95;;;;;;;-3.32;89.98;99629.34;10460540;28;20069;-71
2022/12/12 20:00:25;;;;;;;43.38;26.58;;;;;;;-3.39;90.72;99632.63;10443404;28;20045;-72
2022/12/12 20:05:27;;;;;;;39.78;25.85;;;;;;;-3.40;90.69;99633.47;10445546;28;20557;-71
2022/12/12 20:10:29;;;;;;;34.72;25.75;;;;;;;-3.28;90.77;99635.38;10453300;23;20095;-70
2022/12/12 20:15:31;;;;;;;36.92;24.98;;;;;;;-3.31;90.53;99622.50;10420574;28;20045;-71
2022/12/12 20:20:32;;;;;;;40.55;26.48;;;;;;;-3.32;90.80;99626.78;10403251;28;20477;-70
2022/12/12 20:25:39;;;;;;;39.10;25.65;;;;;;;-3.24;90.35;99631.16;10419958;28;20037;-71
2022/12/12 20:30:40;;;;;;;41.22;25.67;;;;;;;-3.32;90.72;99620.72;10401401;28;20045;-71
2022/12/12 20:35:42;;;;;;;28.35;22.58;;;;;;;-3.42;91.18;99611.16;10419245;28;20053;-70
2022/12/12 20:40:44;;;;;;;30.60;24.15;;;;;;;-3.24;90.41;99615.72;10401739;28;20422;-71
2022/12/12 20:45:45;;;;;;;35.47;23.63;;;;;;;-3.31;89.42;99617.34;10419706;28;20038;-70
2022/12/12 20:50:48;;;;;;;30.30;22.90;;;;;;;-3.30;88.88;99619.06;10419656;28;20041;-72
2022/12/12 20:55:50;;;;;;;32.70;23.30;;;;;;;-3.51;90.41;99629.81;10404253;28;20054;-70
2022/12/12 21:00:51;;;;;;;28.45;21.20;;;;;;;-3.34;89.01;99627.56;10420118;28;20048;-71
2022/12/12 21:05:53;;;;;;;29.70;22.30;;;;;;;-3.28;89.30;99630.22;10402383;28;20367;-71
2022/12/12 21:10:55;;;;;;;27.90;22.65;;;;;;;-3.33;89.73;99631.88;10418373;28;20037;-70
2022/12/12 21:15:58;;;;;;;25.10;22.38;;;;;;;-3.37;89.58;99630.06;10419793;28;20498;-70
2022/12/12 21:20:59;;;;;;;33.80;24.42;;;;;;;-3.40;90.21;99636.03;10401628;28;20053;-71
2022/12/12 21:26:07;;;;;;;26.88;22.40;;;;;;;-3.32;89.52;99636.16;10401147;28;20052;-70
2022/12/12 21:31:09;;;;;;;;;;;;;;;-3.32;89.57;99641.28;10418933;28;20037;-71
2022/12/12 21:36:14;;;;;;;31.85;22.52;;;;;;;-3.52;90.61;99640.94;10418717;28;19974;-72
2022/12/12 21:41:19;;;;;;;27.92;22.83;;;;;;;-3.52;91.25;99653.81;10401018;28;20056;-70
2022/12/12 21:46:23;;;;;;;31.27;22.60;;;;;;;-3.49;91.18;99665.84;10418205;28;20418;-71
2022/12/12 21:51:24;;;;;;;40.95;26.58;;;;;;;-3.40;90.44;99651.47;10417817;28;20041;-70
2022/12/12 21:56:26;;;;;;;44.30;26.90;;;;;;;-3.45;90.68;99641.91;10400092;28;20041;-71
2022/12/12 22:01:28;;;;;;;39.50;24.13;;;;;;;-3.48;90.94;99639.31;10418947;28;20057;-71
2022/12/12 22:06:32;;;;;;;36.92;25.08;;;;;;;-3.52;91.32;99646.09;10417907;28;20111;-71
2022/12/12 22:11:35;;;;;;;31.42;23.73;;;;;;;-3.41;90.97;99657.44;10400824;28;20037;-70
2022/12/12 22:17:00;;;;;;;33.78;23.08;;;;;;;-3.40;91.23;99654.03;10418327;28;20039;-71
2022/12/12 22:22:02;;;;;;;35.05;23.20;;;;;;;-3.35;90.46;99649.84;10398974;28;20049;-71
2022/12/12 22:27:04;;;;;;;24.73;20.23;;;;;;;-3.43;91.05;99633.41;10398493;28;20052;-70
2022/12/12 22:32:06;;;;;;;22.58;20.15;;;;;;;-3.38;89.91;99636.06;10398254;28;20403;-71
2022/12/12 22:37:07;;;;;;;27.38;20.95;;;;;;;-3.44;89.91;99630.81;10399192;28;20502;-70
2022/12/12 22:42:09;;;;;;;21.45;19.20;;;;;;;-3.42;89.22;99626.56;10398239;28;20465;-70
2022/12/12 22:47:11;;;;;;;26.65;20.50;;;;;;;-3.39;89.55;99636.91;10416318;28;20038;-70
2022/12/12 22:52:13;;;;;;;35.15;24.42;;;;;;;-3.32;88.09;99623.31;10398504;28;20498;-70
2022/12/12 22:57:22;;;;;;;32.25;21.40;;;;;;;-3.32;87.92;99628.44;10404297;28;20136;-71
2022/12/12 23:02:32;;;;;;;33.55;23.00;;;;;;;-3.37;87.83;99627.50;10405365;28;20140;-70
2022/12/12 23:07:34;;;;;;;32.60;21.30;;;;;;;-3.31;88.34;99625.06;10422122;28;20045;-69
2022/12/12 23:12:38;;;;;;;25.15;18.98;;;;;;;-3.33;87.81;99629.28;10421862;28;20049;-69
2022/12/12 23:17:40;;;;;;;22.10;18.42;;;;;;;-3.53;88.38;99628.09;10421799;28;20120;-69
2022/12/12 23:22:45;;;;;;;19.52;17.10;;;;;;;-3.48;88.11;99621.31;10422101;28;20064;-69
2022/12/12 23:27:47;;;;;;;17.20;15.57;;;;;;;-3.43;86.67;99612.84;10421629;28;20041;-69
2022/12/12 23:32:49;;;;;;;17.50;15.90;;;;;;;-3.55;87.04;99621.19;10420678;28;20137;-70